^^
Station Historical Data
Daily Summary for February 5, 2017 Units:  English    Metric   Both
« Previous Day
Next Day »
Daily Weekly Monthly Yearly Custom
  High: Low: Average:
Temperature: 41.7 °F 21.8 °F 32.2 °F
Dew Point: 27.6 °F 13.8 °F 18.5 °F
Humidity: 73 % 44 % 58 %
Wind Speed: 9.3 mph 0.0 mph 2 mph
Wind Gust: 12.7 mph - -
Wind:- - SW
Pressure: 30.27 in 29.89 in -
Precipitation: 0.00 in    
Historical Graphs
 
 
Tabular Data for February 5, 2017
Time Temperature Dew Point Pressure Wind Wind Speed Wind Gust Humidity Rainfall Rate (Hourly) solar Conditions
00:02 24.2 °F 14.8 °F 30.27 in Calm     67 % 0.00 in 0.0 W/m2 CLR
00:07 24.2 °F 14.8 °F 30.27 in Calm     67 % 0.00 in 0.0 W/m2 CLR
00:08 24.2 °F 14.8 °F 30.27 in Calm     67 % 0.00 in 0.0 W/m2 CLR
00:13 24.1 °F 14.7 °F 30.27 in Calm     67 % 0.00 in 0.0 W/m2 CLR
00:18 24.1 °F 14.7 °F 30.27 in Calm     67 % 0.00 in 0.0 W/m2 CLR
00:23 24.1 °F 15.1 °F 30.27 in Calm     68 % 0.00 in 0.0 W/m2 CLR
00:28 24.2 °F 15.2 °F 30.26 in Calm     68 % 0.00 in 0.0 W/m2 CLR
00:33 24.0 °F 14.6 °F 30.26 in Calm     67 % 0.00 in 0.0 W/m2 CLR
00:38 24.1 °F 14.7 °F 30.25 in Calm     67 % 0.00 in 0.0 W/m2 CLR
00:43 24.0 °F 14.6 °F 30.26 in Calm     67 % 0.00 in 0.0 W/m2 CLR
00:48 24.0 °F 14.6 °F 30.26 in Calm     67 % 0.00 in 0.0 W/m2 CLR
00:53 24.1 °F 14.7 °F 30.26 in Calm     67 % 0.00 in 0.0 W/m2 CLR
00:58 23.9 °F 14.9 °F 30.25 in Calm     68 % 0.00 in 0.0 W/m2 CLR
01:03 23.7 °F 14.7 °F 30.25 in Calm     68 % 0.00 in 0.0 W/m2 CLR
01:08 23.5 °F 14.8 °F 30.25 in Calm     69 % 0.00 in 0.0 W/m2 CLR
01:13 23.3 °F 14.6 °F 30.25 in Calm     69 % 0.00 in 0.0 W/m2 CLR
01:18 23.4 °F 15.1 °F 30.24 in Calm     70 % 0.00 in 0.0 W/m2 CLR
01:23 23.5 °F 15.1 °F 30.24 in Calm     70 % 0.00 in 0.0 W/m2 CLR
01:28 23.7 °F 15.7 °F 30.24 in Calm     71 % 0.00 in 0.0 W/m2 CLR
01:33 23.8 °F 15.4 °F 30.24 in Calm     70 % 0.00 in 0.0 W/m2 CLR
01:38 23.6 °F 15.2 °F 30.23 in Calm     70 % 0.00 in 0.0 W/m2 CLR
01:43 23.5 °F 15.1 °F 30.23 in Calm     70 % 0.00 in 0.0 W/m2 CLR
01:48 23.5 °F 15.1 °F 30.22 in Calm     70 % 0.00 in 0.0 W/m2 CLR
01:53 23.7 °F 15.3 °F 30.22 in Calm     70 % 0.00 in 0.0 W/m2 CLR
01:58 23.8 °F 14.8 °F 30.22 in Calm     68 % 0.00 in 0.0 W/m2 CLR
02:03 23.8 °F 14.4 °F 30.22 in Calm     67 % 0.00 in 0.0 W/m2 CLR
02:08 23.5 °F 14.1 °F 30.22 in Calm     67 % 0.00 in 0.0 W/m2 CLR
02:13 23.3 °F 14.3 °F 30.22 in Calm     68 % 0.00 in 0.0 W/m2 CLR
02:18 23.0 °F 14.0 °F 30.21 in Calm     68 % 0.00 in 0.0 W/m2 CLR
02:23 22.4 °F 13.8 °F 30.21 in Calm     69 % 0.00 in 0.0 W/m2 CLR
02:28 22.5 °F 13.9 °F 30.20 in Calm     69 % 0.00 in 0.0 W/m2 CLR
02:33 22.7 °F 14.1 °F 30.21 in Calm     69 % 0.00 in 0.0 W/m2 CLR
02:38 22.8 °F 14.5 °F 30.20 in Calm     70 % 0.00 in 0.0 W/m2 CLR
02:43 22.9 °F 14.2 °F 30.20 in WSW 0.5 mph 1.2 mph 69 % 0.00 in 0.0 W/m2 CLR
02:48 22.9 °F 14.6 °F 30.20 in Calm     70 % 0.00 in 0.0 W/m2 CLR
02:53 22.9 °F 14.6 °F 30.19 in Calm     70 % 0.00 in 0.0 W/m2 CLR
02:58 23.0 °F 14.7 °F 30.19 in WSW 1.3 mph 2.3 mph 70 % 0.00 in 0.0 W/m2 CLR
03:03 22.6 °F 14.3 °F 30.19 in Calm     70 % 0.00 in 0.0 W/m2 CLR
03:08 22.3 °F 14.0 °F 30.19 in Calm     70 % 0.00 in 0.0 W/m2 CLR
03:13 22.1 °F 14.1 °F 30.18 in Calm     71 % 0.00 in 0.0 W/m2 CLR
03:18 22.2 °F 14.2 °F 30.18 in Calm     71 % 0.00 in 0.0 W/m2 CLR
03:23 22.2 °F 14.2 °F 30.18 in Calm     71 % 0.00 in 0.0 W/m2 CLR
03:28 22.1 °F 14.1 °F 30.17 in Calm     71 % 0.00 in 0.0 W/m2 CLR
03:33 22.1 °F 14.1 °F 30.17 in Calm     71 % 0.00 in 0.0 W/m2 CLR
03:38 22.0 °F 14.3 °F 30.17 in Calm     72 % 0.00 in 0.0 W/m2 CLR
03:44 21.9 °F 14.3 °F 30.16 in Calm     72 % 0.00 in 0.0 W/m2 CLR
03:49 21.8 °F 14.2 °F 30.16 in Calm     72 % 0.00 in 0.0 W/m2 CLR
03:54 22.2 °F 14.5 °F 30.16 in Calm     72 % 0.00 in 0.0 W/m2 CLR
03:59 22.3 °F 14.6 °F 30.16 in Calm     72 % 0.00 in 0.0 W/m2 CLR
04:04 22.0 °F 14.0 °F 30.15 in Calm     71 % 0.00 in 0.0 W/m2 CLR
04:09 22.0 °F 14.3 °F 30.15 in Calm     72 % 0.00 in 0.0 W/m2 CLR
04:14 21.9 °F 14.3 °F 30.14 in Calm     72 % 0.00 in 0.0 W/m2 CLR
04:19 22.1 °F 14.4 °F 30.14 in West 1.9 mph 3.5 mph 72 % 0.00 in 0.0 W/m2 CLR
04:24 22.0 °F 14.3 °F 30.14 in WNW 2.1 mph 2.3 mph 72 % 0.00 in 0.0 W/m2 CLR
04:29 21.8 °F 14.2 °F 30.14 in Calm     72 % 0.00 in 0.0 W/m2 CLR
04:34 21.9 °F 14.6 °F 30.14 in Calm     73 % 0.00 in 0.0 W/m2 CLR
04:39 22.7 °F 15.3 °F 30.14 in WNW 0.5 mph 2.3 mph 73 % 0.00 in 0.0 W/m2 CLR
04:44 22.8 °F 15.1 °F 30.13 in Calm     72 % 0.00 in 0.0 W/m2 CLR
04:49 22.7 °F 15.0 °F 30.13 in Calm   1.0 mph 72 % 0.00 in 0.0 W/m2 CLR
04:54 23.1 °F 15.4 °F 30.12 in SW 1.3 mph 3.5 mph 72 % 0.00 in 0.0 W/m2 CLR
04:59 23.8 °F 16.1 °F 30.12 in SSW 2.4 mph 3.5 mph 72 % 0.00 in 0.0 W/m2 CLR
05:04 25.2 °F 17.1 °F 30.12 in South 3.3 mph 4.6 mph 71 % 0.00 in 0.0 W/m2 CLR
05:09 26.2 °F 17.7 °F 30.11 in South 2.4 mph 4.6 mph 70 % 0.00 in 0.0 W/m2 CLR
05:14 26.8 °F 17.6 °F 30.11 in South 2.3 mph 4.0 mph 68 % 0.00 in 0.0 W/m2 CLR
05:19 27.1 °F 17.6 °F 30.11 in South 3.7 mph 6.9 mph 67 % 0.00 in 0.0 W/m2 CLR
05:24 27.4 °F 17.9 °F 30.11 in South 4.9 mph 8.1 mph 67 % 0.00 in 0.0 W/m2 CLR
05:29 27.6 °F 17.7 °F 30.11 in SSW 3.6 mph 5.8 mph 66 % 0.00 in 0.0 W/m2 CLR
05:34 27.8 °F 17.9 °F 30.11 in SSW 4.3 mph 6.0 mph 66 % 0.00 in 0.0 W/m2 CLR
05:39 27.9 °F 18.0 °F 30.11 in South 4.2 mph 8.1 mph 66 % 0.00 in 0.0 W/m2 CLR
05:44 27.8 °F 17.9 °F 30.11 in SSW 5.6 mph 6.9 mph 66 % 0.00 in 0.0 W/m2 CLR
05:49 27.7 °F 18.2 °F 30.11 in South 2.9 mph 3.5 mph 67 % 0.00 in 0.0 W/m2 CLR
05:54 27.6 °F 18.1 °F 30.10 in SSW 2.1 mph 4.6 mph 67 % 0.00 in 0.0 W/m2 CLR
05:59 27.6 °F 18.1 °F 30.10 in South 4.2 mph 5.8 mph 67 % 0.00 in 0.0 W/m2 CLR
06:04 27.5 °F 18.0 °F 30.10 in South 2.3 mph 5.0 mph 67 % 0.00 in 0.0 W/m2 CLR
06:09 27.4 °F 17.9 °F 30.10 in South 2.1 mph 3.5 mph 67 % 0.00 in 0.0 W/m2 CLR
06:14 27.2 °F 17.7 °F 30.10 in South 1.9 mph 3.5 mph 67 % 0.00 in 0.0 W/m2 CLR
06:19 27.0 °F 17.5 °F 30.09 in South 2.4 mph 3.5 mph 67 % 0.00 in 0.0 W/m2 CLR
06:24 26.9 °F 17.7 °F 30.09 in South 1.0 mph 3.5 mph 68 % 0.00 in 0.0 W/m2 CLR
06:29 26.9 °F 17.7 °F 30.09 in South 1.9 mph 2.3 mph 68 % 0.00 in 0.0 W/m2 CLR
06:34 27.1 °F 17.9 °F 30.08 in South 1.2 mph 3.0 mph 68 % 0.00 in 0.0 W/m2 CLR
06:39 27.3 °F 18.1 °F 30.08 in South 1.1 mph 2.3 mph 68 % 0.00 in 0.0 W/m2 CLR
06:44 27.3 °F 18.1 °F 30.08 in South 0.4 mph 2.3 mph 68 % 0.00 in 0.0 W/m2 CLR
06:49 27.5 °F 18.3 °F 30.08 in South 1.7 mph 3.5 mph 68 % 0.00 in 0.0 W/m2 CLR
06:54 27.6 °F 18.4 °F 30.08 in South 1.1 mph 3.5 mph 68 % 0.00 in 0.0 W/m2 CLR
06:59 27.7 °F 18.2 °F 30.08 in South 1.0 mph 2.3 mph 67 % 0.00 in 0.0 W/m2 CLR
07:04 27.8 °F 18.3 °F 30.08 in South 1.6 mph 3.5 mph 67 % 0.00 in 0.0 W/m2 OVC
07:09 28.0 °F 18.5 °F 30.08 in South 2.7 mph 3.5 mph 67 % 0.00 in 0.0 W/m2 OVC
07:15 28.2 °F 18.6 °F 30.08 in South 0.6 mph 2.3 mph 67 % 0.00 in 5.0 W/m2 OVC
07:20 28.3 °F 18.7 °F 30.08 in South 2.1 mph 3.5 mph 67 % 0.00 in 14.0 W/m2 OVC
07:25 28.5 °F 18.9 °F 30.08 in South 2.0 mph 3.0 mph 67 % 0.00 in 16.0 W/m2 CLR
07:30 28.6 °F 18.7 °F 30.08 in South 1.2 mph 3.5 mph 66 % 0.00 in 14.0 W/m2 CLR
07:35 28.6 °F 18.7 °F 30.08 in South 0.7 mph 1.0 mph 66 % 0.00 in 9.0 W/m2 SCT
07:40 28.7 °F 18.8 °F 30.07 in South 0.5 mph 2.3 mph 66 % 0.00 in 12.0 W/m2 BKN
07:45 28.8 °F 18.9 °F 30.07 in South 0.3 mph 2.3 mph 66 % 0.00 in 23.0 W/m2 SCT
07:50 28.9 °F 19.0 °F 30.07 in South 1.5 mph 3.5 mph 66 % 0.00 in 33.0 W/m2 FEW
07:55 29.1 °F 19.2 °F 30.07 in Calm   1.2 mph 66 % 0.00 in 33.0 W/m2 SCT
08:00 29.2 °F 18.9 °F 30.06 in South 1.8 mph 3.5 mph 65 % 0.00 in 26.0 W/m2 BKN
08:05 29.2 °F 18.9 °F 30.06 in Calm     65 % 0.00 in 28.0 W/m2 BKN
08:10 29.3 °F 19.0 °F 30.07 in Calm     65 % 0.00 in 33.0 W/m2 BKN
08:15 29.5 °F 19.2 °F 30.07 in South 1.7 mph 3.5 mph 65 % 0.00 in 30.0 W/m2 BKN
08:20 29.7 °F 19.0 °F 30.07 in South 1.1 mph 3.5 mph 64 % 0.00 in 32.0 W/m2 BKN
08:25 30.1 °F 19.0 °F 30.06 in Calm     63 % 0.00 in 37.0 W/m2 BKN
08:30 30.3 °F 18.8 °F 30.06 in Calm   2.3 mph 62 % 0.00 in 46.0 W/m2 BKN
08:35 30.6 °F 18.7 °F 30.06 in SW 1.4 mph 3.0 mph 61 % 0.00 in 49.0 W/m2 BKN
08:40 30.8 °F 18.5 °F 30.06 in SW 1.5 mph 3.5 mph 60 % 0.00 in 40.0 W/m2 OVC
08:45 31.0 °F 18.3 °F 30.05 in Calm     59 % 0.00 in 58.0 W/m2 BKN
08:50 31.2 °F 18.1 °F 30.05 in SW 4.0 mph 8.1 mph 58 % 0.00 in 62.0 W/m2 BKN
08:55 31.4 °F 17.9 °F 30.05 in SW 2.4 mph 3.5 mph 57 % 0.00 in 53.0 W/m2 BKN
09:00 31.4 °F 17.9 °F 30.05 in SW 0.9 mph 4.0 mph 57 % 0.00 in 32.0 W/m2 OVC
09:05 31.5 °F 17.6 °F 30.05 in SW 1.6 mph 2.3 mph 56 % 0.00 in 51.0 W/m2 OVC
09:10 31.6 °F 17.7 °F 30.05 in SW 2.9 mph 4.6 mph 56 % 0.00 in 128.0 W/m2 BKN
09:15 31.8 °F 17.9 °F 30.04 in SW 3.5 mph 4.6 mph 56 % 0.00 in 84.0 W/m2 BKN
09:20 31.9 °F 18.0 °F 30.04 in SW 3.3 mph 3.5 mph 56 % 0.00 in 90.0 W/m2 BKN
09:25 32.0 °F 17.6 °F 30.04 in SW 0.8 mph 2.3 mph 55 % 0.00 in 169.0 W/m2 SCT
09:30 32.2 °F 17.4 °F 30.03 in SW 2.0 mph 3.5 mph 54 % 0.00 in 137.0 W/m2 SCT
09:35 32.4 °F 17.6 °F 30.03 in SSW 3.6 mph 4.6 mph 54 % 0.00 in 105.0 W/m2 BKN
09:41 32.5 °F 17.7 °F 30.03 in SSW 2.6 mph 3.5 mph 54 % 0.00 in 91.0 W/m2 BKN
09:46 32.6 °F 17.3 °F 30.03 in SSW 2.4 mph 3.5 mph 53 % 0.00 in 84.0 W/m2 OVC
09:51 32.6 °F 17.3 °F 30.02 in SW 2.1 mph 4.6 mph 53 % 0.00 in 91.0 W/m2 BKN
09:56 32.6 °F 16.9 °F 30.02 in SSW 5.5 mph 10.4 mph 52 % 0.00 in 90.0 W/m2 OVC
10:01 32.8 °F 17.1 °F 30.02 in WSW 3.0 mph 4.0 mph 52 % 0.00 in 95.0 W/m2 BKN
10:06 32.8 °F 17.1 °F 30.02 in SSW 3.2 mph 4.6 mph 52 % 0.00 in 84.0 W/m2 OVC
10:11 32.9 °F 17.2 °F 30.02 in South 3.3 mph 7.0 mph 52 % 0.00 in 100.0 W/m2 OVC
10:16 33.0 °F 16.8 °F 30.02 in WSW 3.7 mph 6.9 mph 51 % 0.00 in 86.0 W/m2 OVC
10:21 33.0 °F 16.8 °F 30.01 in SW 4.7 mph 10.0 mph 51 % 0.00 in 88.0 W/m2 OVC
10:26 33.0 °F 16.8 °F 30.01 in SSW 2.4 mph 6.9 mph 51 % 0.00 in 86.0 W/m2 OVC
10:31 33.0 °F 16.8 °F 30.00 in WSW 3.1 mph 4.0 mph 51 % 0.00 in 86.0 W/m2 OVC
10:36 33.1 °F 16.9 °F 30.00 in SSW 4.6 mph 9.2 mph 51 % 0.00 in 88.0 W/m2 OVC
10:41 33.2 °F 17.0 °F 30.00 in SW 3.6 mph 5.8 mph 51 % 0.00 in 105.0 W/m2 OVC
10:46 33.2 °F 17.0 °F 30.00 in SSW 0.1 mph 2.0 mph 51 % 0.00 in 120.0 W/m2 BKN
10:51 33.4 °F 16.7 °F 29.99 in SW 3.4 mph 4.6 mph 50 % 0.00 in 120.0 W/m2 BKN
10:56 33.5 °F 16.8 °F 29.99 in SSW 3.5 mph 5.8 mph 50 % 0.00 in 120.0 W/m2 BKN
11:01 33.6 °F 16.9 °F 29.99 in SW 2.5 mph 3.5 mph 50 % 0.00 in 105.0 W/m2 OVC
11:06 33.7 °F 17.0 °F 29.99 in SW 3.5 mph 4.6 mph 50 % 0.00 in 97.0 W/m2 OVC
11:11 33.7 °F 17.0 °F 29.99 in WSW 3.2 mph 4.6 mph 50 % 0.00 in 91.0 W/m2 OVC
11:16 33.8 °F 17.1 °F 29.99 in SW 3.4 mph 4.6 mph 50 % 0.00 in 109.0 W/m2 OVC
11:21 33.9 °F 16.7 °F 29.99 in SSW 1.6 mph 4.0 mph 49 % 0.00 in 111.0 W/m2 OVC
11:26 34.0 °F 16.8 °F 29.98 in SW 4.4 mph 5.8 mph 49 % 0.00 in 105.0 W/m2 OVC
11:31 34.0 °F 17.3 °F 29.98 in SW 2.0 mph 3.5 mph 50 % 0.00 in 109.0 W/m2 OVC
11:36 34.2 °F 17.0 °F 29.98 in WSW 4.4 mph 8.1 mph 49 % 0.00 in 123.0 W/m2 OVC
11:41 34.3 °F 16.6 °F 29.98 in WSW 5.3 mph 9.2 mph 48 % 0.00 in 111.0 W/m2 OVC
11:46 34.3 °F 16.6 °F 29.98 in West 1.4 mph 3.5 mph 48 % 0.00 in 120.0 W/m2 OVC
11:51 34.5 °F 16.8 °F 29.98 in WSW 3.1 mph 5.0 mph 48 % 0.00 in 128.0 W/m2 OVC
11:56 34.5 °F 16.8 °F 29.97 in West 3.2 mph 7.0 mph 48 % 0.00 in 98.0 W/m2 OVC
12:01 34.3 °F 16.6 °F 29.97 in WSW 2.1 mph 5.8 mph 48 % 0.00 in 90.0 W/m2 OVC
12:06 34.3 °F 16.6 °F 29.96 in West 3.7 mph 7.0 mph 48 % 0.00 in 86.0 W/m2 OVC
12:11 34.3 °F 16.6 °F 29.95 in WSW 2.8 mph 4.0 mph 48 % 0.00 in 86.0 W/m2 OVC
12:16 34.3 °F 16.6 °F 29.95 in SW 3.3 mph 5.8 mph 48 % 0.00 in 81.0 W/m2 OVC
12:21 34.3 °F 16.6 °F 29.95 in WSW 3.4 mph 9.0 mph 48 % 0.00 in 100.0 W/m2 OVC
12:26 34.3 °F 16.6 °F 29.95 in WSW 5.3 mph 10.4 mph 48 % 0.00 in 118.0 W/m2 OVC
12:31 34.2 °F 16.5 °F 29.94 in WSW 3.9 mph 10.4 mph 48 % 0.00 in 127.0 W/m2 OVC
12:36 34.3 °F 16.6 °F 29.94 in SW 3.4 mph 10.4 mph 48 % 0.00 in 127.0 W/m2 OVC
12:41 34.4 °F 16.7 °F 29.94 in West 4.3 mph 5.8 mph 48 % 0.00 in 102.0 W/m2 OVC
12:46 34.5 °F 16.8 °F 29.94 in SW 2.2 mph 3.5 mph 48 % 0.00 in 97.0 W/m2 OVC
12:51 34.6 °F 16.9 °F 29.93 in West 1.2 mph 3.5 mph 48 % 0.00 in 107.0 W/m2 OVC
12:56 34.6 °F 16.9 °F 29.93 in WSW 2.2 mph 6.0 mph 48 % 0.00 in 109.0 W/m2 OVC
13:01 34.7 °F 17.0 °F 29.93 in WSW 2.7 mph 4.6 mph 48 % 0.00 in 128.0 W/m2 OVC
13:06 34.8 °F 17.1 °F 29.92 in SW 4.5 mph 4.6 mph 48 % 0.00 in 139.0 W/m2 BKN
13:11 34.9 °F 17.2 °F 29.92 in WSW 1.4 mph 3.5 mph 48 % 0.00 in 146.0 W/m2 BKN
13:16 35.1 °F 17.4 °F 29.92 in SW 3.5 mph 5.0 mph 48 % 0.00 in 118.0 W/m2 OVC
13:21 35.1 °F 17.4 °F 29.92 in WSW 1.6 mph 4.0 mph 48 % 0.00 in 132.0 W/m2 BKN
13:26 35.2 °F 17.0 °F 29.91 in WSW 3.8 mph 6.9 mph 47 % 0.00 in 146.0 W/m2 BKN
13:31 35.3 °F 17.1 °F 29.91 in West 0.3 mph 3.5 mph 47 % 0.00 in 148.0 W/m2 BKN
13:36 35.5 °F 17.2 °F 29.91 in WSW 2.4 mph 6.0 mph 47 % 0.00 in 146.0 W/m2 BKN
13:41 35.6 °F 17.3 °F 29.90 in West 3.3 mph 8.0 mph 47 % 0.00 in 158.0 W/m2 BKN
13:46 35.7 °F 17.4 °F 29.90 in WSW 3.7 mph 8.1 mph 47 % 0.00 in 144.0 W/m2 BKN
13:51 35.8 °F 17.5 °F 29.90 in SW 3.3 mph 10.4 mph 47 % 0.00 in 183.0 W/m2 BKN
13:56 36.1 °F 17.8 °F 29.90 in WSW 5.8 mph 9.0 mph 47 % 0.00 in 204.0 W/m2 BKN
14:01 36.3 °F 17.5 °F 29.90 in WSW 2.3 mph 11.5 mph 46 % 0.00 in 190.0 W/m2 BKN
14:06 36.6 °F 17.7 °F 29.90 in West 4.9 mph 8.1 mph 46 % 0.00 in 156.0 W/m2 BKN
14:11 36.5 °F 17.7 °F 29.89 in WSW 4.9 mph 9.2 mph 46 % 0.00 in 188.0 W/m2 BKN
14:17 36.6 °F 17.7 °F 29.89 in WSW 4.2 mph 10.4 mph 46 % 0.00 in 183.0 W/m2 BKN
14:22 36.8 °F 17.9 °F 29.89 in SW 4.5 mph 9.2 mph 46 % 0.00 in 183.0 W/m2 BKN
14:27 37.0 °F 18.1 °F 29.89 in WSW 2.7 mph 8.1 mph 46 % 0.00 in 214.0 W/m2 SCT
14:32 37.2 °F 18.3 °F 29.89 in WSW 5.0 mph 8.1 mph 46 % 0.00 in 174.0 W/m2 SCT
14:37 37.5 °F 18.6 °F 29.89 in WSW 1.9 mph 3.5 mph 46 % 0.00 in 193.0 W/m2 SCT
14:42 37.8 °F 18.3 °F 29.89 in West 9.3 mph 11.5 mph 45 % 0.00 in 188.0 W/m2 SCT
14:47 37.8 °F 18.3 °F 29.89 in WSW 6.9 mph 8.1 mph 45 % 0.00 in 174.0 W/m2 SCT
14:52 38.1 °F 18.6 °F 29.89 in West 1.5 mph 3.5 mph 45 % 0.00 in 172.0 W/m2 SCT
14:57 38.3 °F 18.8 °F 29.89 in West 5.8 mph 11.0 mph 45 % 0.00 in 178.0 W/m2 SCT
15:02 38.3 °F 18.8 °F 29.89 in WSW 4.3 mph 7.0 mph 45 % 0.00 in 178.0 W/m2 SCT
15:07 38.3 °F 18.3 °F 29.89 in SW 6.0 mph 9.2 mph 44 % 0.00 in 174.0 W/m2 SCT
15:12 38.5 °F 19.0 °F 29.89 in WSW 3.1 mph 6.9 mph 45 % 0.00 in 148.0 W/m2 SCT
15:17 38.7 °F 19.2 °F 29.89 in SW 3.4 mph 6.9 mph 45 % 0.00 in 139.0 W/m2 SCT
15:22 38.8 °F 18.7 °F 29.89 in WSW 5.6 mph 10.4 mph 44 % 0.00 in 123.0 W/m2 BKN
15:27 38.8 °F 19.2 °F 29.89 in West 6.1 mph 11.5 mph 45 % 0.00 in 144.0 W/m2 SCT
15:32 38.8 °F 19.2 °F 29.89 in WSW 6.9 mph 11.5 mph 45 % 0.00 in 134.0 W/m2 SCT
15:37 38.8 °F 19.2 °F 29.90 in WSW 6.2 mph 9.2 mph 45 % 0.00 in 118.0 W/m2 SCT
15:42 38.9 °F 19.3 °F 29.89 in West 1.7 mph 10.0 mph 45 % 0.00 in 125.0 W/m2 SCT
15:47 38.8 °F 19.2 °F 29.89 in West 3.2 mph 5.0 mph 45 % 0.00 in 139.0 W/m2 CLR
15:52 39.0 °F 19.4 °F 29.89 in SW 7.5 mph 10.4 mph 45 % 0.00 in 139.0 W/m2 SCT
15:57 39.0 °F 19.4 °F 29.89 in WSW 9.0 mph 12.7 mph 45 % 0.00 in 237.0 W/m2 CLR
16:02 39.2 °F 19.6 °F 29.89 in West 3.4 mph 5.8 mph 45 % 0.00 in 123.0 W/m2 FEW
16:07 39.1 °F 19.5 °F 29.90 in WSW 7.5 mph 11.5 mph 45 % 0.00 in 104.0 W/m2 SCT
16:12 38.9 °F 19.9 °F 29.90 in West 4.2 mph 6.9 mph 46 % 0.00 in 81.0 W/m2 SCT
16:17 38.8 °F 19.8 °F 29.90 in WSW 4.0 mph 8.0 mph 46 % 0.00 in 79.0 W/m2 SCT
16:22 38.8 °F 19.8 °F 29.90 in WSW 4.9 mph 8.1 mph 46 % 0.00 in 63.0 W/m2 SCT
16:27 38.7 °F 19.7 °F 29.90 in WSW 6.3 mph 10.4 mph 46 % 0.00 in 58.0 W/m2 SCT
16:32 38.5 °F 20.0 °F 29.90 in WSW 3.4 mph 5.8 mph 47 % 0.00 in 53.0 W/m2 SCT
16:37 38.5 °F 20.5 °F 29.90 in WSW 3.8 mph 4.0 mph 48 % 0.00 in 37.0 W/m2 BKN
16:42 38.6 °F 20.6 °F 29.90 in WSW 3.6 mph 8.1 mph 48 % 0.00 in 30.0 W/m2 BKN
16:47 38.6 °F 20.6 °F 29.90 in WSW 1.5 mph 6.9 mph 48 % 0.00 in 26.0 W/m2 BKN
16:52 38.6 °F 20.6 °F 29.90 in West 3.0 mph 10.4 mph 48 % 0.00 in 21.0 W/m2 BKN
16:57 38.5 °F 20.5 °F 29.90 in WSW 5.6 mph 11.5 mph 48 % 0.00 in 16.0 W/m2 BKN
17:02 38.6 °F 20.6 °F 29.90 in West 7.8 mph 11.5 mph 48 % 0.00 in 12.0 W/m2 BKN
17:07 38.5 °F 20.5 °F 29.91 in WSW 5.4 mph 8.1 mph 48 % 0.00 in 11.0 W/m2 BKN
17:12 38.5 °F 20.5 °F 29.91 in WSW 3.3 mph 8.1 mph 48 % 0.00 in 9.0 W/m2 SCT
17:17 38.3 °F 20.3 °F 29.91 in WSW 5.4 mph 6.9 mph 48 % 0.00 in 7.0 W/m2 CLR
17:22 38.1 °F 20.6 °F 29.91 in SW 5.1 mph 8.1 mph 49 % 0.00 in 5.0 W/m2 OVC
17:27 37.9 °F 20.4 °F 29.92 in SW 2.7 mph 3.5 mph 49 % 0.00 in 0.0 W/m2 OVC
17:32 37.7 °F 20.7 °F 29.92 in WSW 5.3 mph 10.4 mph 50 % 0.00 in 0.0 W/m2 OVC
17:37 37.7 °F 20.7 °F 29.92 in WSW 2.6 mph 4.6 mph 50 % 0.00 in 0.0 W/m2 OVC
17:42 37.6 °F 20.6 °F 29.92 in WSW 2.6 mph 4.6 mph 50 % 0.00 in 0.0 W/m2 OVC
17:47 37.4 °F 20.9 °F 29.92 in SW 2.0 mph 3.5 mph 51 % 0.00 in 0.0 W/m2 OVC
17:52 37.0 °F 20.5 °F 29.92 in WSW 0.3 mph 3.5 mph 51 % 0.00 in 0.0 W/m2 OVC
17:57 36.6 °F 20.6 °F 29.92 in WSW 1.5 mph 3.0 mph 52 % 0.00 in 0.0 W/m2 CLR
18:02 36.4 °F 20.9 °F 29.92 in WSW 2.2 mph 2.2 mph 53 % 0.00 in 0.0 W/m2 CLR
18:07 36.3 °F 20.8 °F 29.92 in West 0.3 mph 3.5 mph 53 % 0.00 in 0.0 W/m2 CLR
18:12 36.1 °F 20.6 °F 29.93 in West 0.2 mph 2.3 mph 53 % 0.00 in 0.0 W/m2 CLR
18:17 35.8 °F 20.8 °F 29.93 in West 1.0 mph 2.0 mph 54 % 0.00 in 0.0 W/m2 CLR
18:23 35.8 °F 20.8 °F 29.93 in WSW 0.7 mph 2.3 mph 54 % 0.00 in 0.0 W/m2 CLR
18:28 35.7 °F 20.7 °F 29.93 in WSW 0.7 mph 1.2 mph 54 % 0.00 in 0.0 W/m2 CLR
18:33 35.4 °F 20.8 °F 29.93 in Calm   3.5 mph 55 % 0.00 in 0.0 W/m2 CLR
18:38 35.1 °F 20.5 °F 29.94 in Calm     55 % 0.00 in 0.0 W/m2 CLR
18:43 34.9 °F 20.8 °F 29.94 in Calm     56 % 0.00 in 0.0 W/m2 CLR
18:48 35.0 °F 20.9 °F 29.94 in Calm     56 % 0.00 in 0.0 W/m2 CLR
18:53 35.2 °F 21.1 °F 29.94 in WSW 0.5 mph 2.3 mph 56 % 0.00 in 0.0 W/m2 CLR
18:58 35.3 °F 21.2 °F 29.94 in WSW 0.6 mph 3.5 mph 56 % 0.00 in 0.0 W/m2 CLR
19:03 35.7 °F 21.1 °F 29.94 in Calm     55 % 0.00 in 0.0 W/m2 CLR
19:08 35.8 °F 21.2 °F 29.94 in Calm     55 % 0.00 in 0.0 W/m2 CLR
19:13 35.7 °F 21.1 °F 29.94 in WSW 0.1 mph 1.0 mph 55 % 0.00 in 0.0 W/m2 CLR
19:18 35.9 °F 21.3 °F 29.94 in SW 0.1 mph 2.0 mph 55 % 0.00 in 0.0 W/m2 CLR
19:23 36.0 °F 21.4 °F 29.94 in Calm     55 % 0.00 in 0.0 W/m2 CLR
19:28 36.1 °F 21.5 °F 29.94 in SW 1.2 mph 2.3 mph 55 % 0.00 in 0.0 W/m2 CLR
19:33 36.1 °F 21.0 °F 29.95 in Calm   1.2 mph 54 % 0.00 in 0.0 W/m2 CLR
19:38 36.0 °F 21.4 °F 29.95 in Calm   1.2 mph 55 % 0.00 in 0.0 W/m2 CLR
19:43 36.0 °F 21.4 °F 29.94 in Calm   1.2 mph 55 % 0.00 in 0.0 W/m2 CLR
19:48 35.9 °F 21.3 °F 29.94 in SW 0.1 mph 2.3 mph 55 % 0.00 in 0.0 W/m2 CLR
19:53 35.9 °F 21.3 °F 29.94 in Calm     55 % 0.00 in 0.0 W/m2 CLR
19:58 35.9 °F 21.3 °F 29.94 in SW 0.1 mph 1.0 mph 55 % 0.00 in 0.0 W/m2 CLR
20:03 35.9 °F 21.7 °F 29.94 in SW 0.4 mph 2.3 mph 56 % 0.00 in 0.0 W/m2 CLR
20:08 36.1 °F 21.5 °F 29.94 in SW 0.5 mph 3.5 mph 55 % 0.00 in 0.0 W/m2 CLR
20:13 36.1 °F 21.5 °F 29.93 in SW 0.8 mph 2.0 mph 55 % 0.00 in 0.0 W/m2 CLR
20:18 36.2 °F 21.6 °F 29.93 in SW 0.3 mph 1.2 mph 55 % 0.00 in 0.0 W/m2 CLR
20:23 36.3 °F 21.7 °F 29.93 in SW 0.5 mph 3.5 mph 55 % 0.00 in 0.0 W/m2 CLR
20:28 36.5 °F 21.8 °F 29.93 in SW 1.2 mph 2.0 mph 55 % 0.00 in 0.0 W/m2 CLR
20:33 36.6 °F 21.5 °F 29.93 in WSW 1.9 mph 3.5 mph 54 % 0.00 in 0.0 W/m2 CLR
20:38 36.7 °F 21.6 °F 29.93 in SW 0.6 mph 3.5 mph 54 % 0.00 in 0.0 W/m2 CLR
20:43 36.7 °F 21.6 °F 29.93 in WSW 1.6 mph 4.6 mph 54 % 0.00 in 0.0 W/m2 CLR
20:48 36.7 °F 21.6 °F 29.93 in SW 1.4 mph 4.0 mph 54 % 0.00 in 0.0 W/m2 CLR
20:53 36.8 °F 21.7 °F 29.93 in Calm   2.3 mph 54 % 0.00 in 0.0 W/m2 CLR
20:58 36.8 °F 21.7 °F 29.93 in SW 0.8 mph 3.5 mph 54 % 0.00 in 0.0 W/m2 CLR
21:03 36.9 °F 21.8 °F 29.93 in SW 0.3 mph 3.0 mph 54 % 0.00 in 0.0 W/m2 CLR
21:08 37.0 °F 21.9 °F 29.94 in WSW 0.4 mph 1.2 mph 54 % 0.00 in 0.0 W/m2 CLR
21:13 37.0 °F 21.9 °F 29.94 in WSW 0.3 mph 1.2 mph 54 % 0.00 in 0.0 W/m2 CLR
21:18 36.9 °F 21.8 °F 29.94 in SW 0.7 mph 1.2 mph 54 % 0.00 in 0.0 W/m2 CLR
21:23 37.0 °F 21.9 °F 29.95 in Calm     54 % 0.00 in 0.0 W/m2 CLR
21:28 37.0 °F 21.9 °F 29.95 in Calm   3.5 mph 54 % 0.00 in 0.0 W/m2 CLR
21:34 37.1 °F 22.0 °F 29.95 in WSW 0.1 mph 3.5 mph 54 % 0.00 in 0.0 W/m2 CLR
21:39 37.2 °F 22.1 °F 29.95 in Calm     54 % 0.00 in 0.0 W/m2 CLR
21:44 37.3 °F 22.2 °F 29.96 in WSW 1.2 mph 5.8 mph 54 % 0.00 in 0.0 W/m2 CLR
21:49 37.4 °F 22.3 °F 29.96 in Calm   2.3 mph 54 % 0.00 in 0.0 W/m2 CLR
21:54 37.2 °F 22.5 °F 29.96 in WSW 0.2 mph 1.2 mph 55 % 0.00 in 0.0 W/m2 CLR
21:59 37.2 °F 22.5 °F 29.96 in Calm     55 % 0.00 in 0.0 W/m2 CLR
22:04 37.3 °F 22.2 °F 29.96 in Calm     54 % 0.00 in 0.0 W/m2 CLR
22:09 37.4 °F 22.3 °F 29.96 in WSW 0.1 mph 1.2 mph 54 % 0.00 in 0.0 W/m2 CLR
22:14 37.4 °F 22.7 °F 29.97 in SW 0.2 mph 1.2 mph 55 % 0.00 in 0.0 W/m2 CLR
22:19 37.4 °F 22.7 °F 29.97 in SW 1.7 mph 3.5 mph 55 % 0.00 in 0.0 W/m2 CLR
22:24 37.3 °F 22.6 °F 29.97 in SW 1.6 mph 3.5 mph 55 % 0.00 in 0.0 W/m2 CLR
22:29 37.4 °F 22.7 °F 29.97 in SW 0.4 mph 2.3 mph 55 % 0.00 in 0.0 W/m2 CLR
22:34 37.4 °F 23.1 °F 29.97 in SW 1.0 mph 3.5 mph 56 % 0.00 in 0.0 W/m2 CLR
22:39 37.4 °F 23.1 °F 29.97 in SW 1.6 mph 4.6 mph 56 % 0.00 in 0.0 W/m2 CLR
22:44 37.5 °F 23.2 °F 29.97 in SW 0.6 mph 2.3 mph 56 % 0.00 in 0.0 W/m2 CLR
22:49 37.5 °F 23.2 °F 29.98 in SW 0.6 mph 2.3 mph 56 % 0.00 in 0.0 W/m2 CLR
22:54 37.8 °F 23.9 °F 29.98 in SW 1.6 mph 4.0 mph 57 % 0.00 in 0.0 W/m2 CLR
22:59 38.0 °F 24.1 °F 29.98 in SW 0.7 mph 3.5 mph 57 % 0.00 in 0.0 W/m2 CLR
23:04 38.0 °F 24.1 °F 29.99 in WSW 1.1 mph 3.5 mph 57 % 0.00 in 0.0 W/m2 CLR
23:09 38.1 °F 24.6 °F 29.99 in WSW 0.6 mph 3.5 mph 58 % 0.00 in 0.0 W/m2 CLR
23:14 38.1 °F 24.6 °F 29.99 in West 0.5 mph 2.3 mph 58 % 0.00 in 0.0 W/m2 CLR
23:19 38.5 °F 25.0 °F 29.99 in West 2.2 mph 3.5 mph 58 % 0.00 in 0.0 W/m2 CLR
23:24 38.8 °F 25.3 °F 29.99 in West 3.8 mph 6.9 mph 58 % 0.00 in 0.0 W/m2 CLR
23:29 39.2 °F 25.6 °F 29.99 in WNW 2.6 mph 5.8 mph 58 % 0.00 in 0.0 W/m2 CLR
23:34 40.1 °F 26.5 °F 29.99 in WNW 3.4 mph 6.9 mph 58 % 0.00 in 0.0 W/m2 CLR
23:39 40.6 °F 27.0 °F 29.99 in West 6.4 mph 10.4 mph 58 % 0.00 in 0.0 W/m2 CLR
23:44 41.0 °F 26.9 °F 29.99 in WNW 6.9 mph 9.2 mph 57 % 0.00 in 0.0 W/m2 CLR
23:49 41.3 °F 27.2 °F 29.99 in WNW 7.3 mph 11.5 mph 57 % 0.00 in 0.0 W/m2 CLR
23:54 41.6 °F 27.5 °F 29.99 in WNW 5.6 mph 11.5 mph 57 % 0.00 in 0.0 W/m2 CLR
23:59 41.7 °F 27.6 °F 29.99 in NW 4.1 mph 8.0 mph 57 % 0.00 in 0.0 W/m2 CLR
Air Products Campus Weather
Compliments of Weather Underground - 3.5 mb